Mount Lemmon, AZ

11:29 PM MST on January 31, 2015 (GMT -0700)
Fort Huachuca | Change Station
CLOSE
Current Station
Airport
Location: Fort Huachuca,
Elevation: 4767 ft
Nearby Weather Stations

Elev 4767 ft 31.61 °N, 110.43 °W | Updated 33 minutes ago

Rain
Rain
41 °F
Feels Like 36 °F
N
7
Wind Variable Wind from SE

Today
High -- | Low -- °F
--% Chance of Precip.
Yesterday
High -- | Low -- °F
Precip. -- in
7:18 AM 5:55 PM
Waxing Gibbous, 93% visible
Pressure 29.88 in
Visibility 10.0 miles
Clouds Scattered Clouds 3000 ft
Windchill 36 °F
Dew Point 39 °F
Humidity 93%
Rainfall 0.10 in
Snow Depth Not available.
UV 0 out of 12
Pollen .50 out of 12
Air Quality Not available.
Flu Activity Not available.
METAR KALK 010556Z AUTO 14006KT 10SM SCT030 05/04 A3000 RMK AO2 SLP116 P0001 60001 T00500039 10089 20050 51009 TSNO $

More Conditions Fewer Conditions

Pressure 29.88 in
Visibility 10.0 miles
Clouds Scattered Clouds 3000 ft
Windchill 36 °F
Dew Point 39 °F
Humidity 93%
Rainfall 0.10 in
Snow Depth Not available.
UV 0 out of 12
Pollen .50 out of 12
Air Quality Not available.
Flu Activity Not available.
METAR KALK 010556Z AUTO 14006KT 10SM SCT030 05/04 A3000 RMK AO2 SLP116 P0001 60001 T00500039 10089 20050 51009 TSNO $

More Conditions Fewer Conditions

10-Day Weather Forecast

Almanac

Astronomy

Jan. 31, 2015 Rise Set
Actual Time
Civil Twilight
Nautical Twilight
Astronomical Twilight
Moon
Length of Visible Light
Length of Day
Tomorrow will be .
, % of the Moon is Illuminated

Today's Extremes

State Highs State Lows

Community

WunderPhotos

Upload Photos

1,792,323 photos uploaded!

WunderBlogs® & News

Nearby

Air Quality

  Air Quality AQ Index Pollutant
Not available.

Snow Depth

Station Depth Elevation

Earthquake Activity

City Distance Mag. Time & Date
Minimum magnitude displayed is 2.5.

Coastal Water Temperatures

Place Temperature

Nearby Weather Stations